Time;durP1;ratioP1;P1;durP2;ratioP2;P2;SDS_P1;SDS_P2;PMS_P1;PMS_P2;Temp;Humidity;BMP_temperature;BMP_pressure;BME280_temperature;BME280_humidity;BME280_pressure;Samples;Min_cycle;Max_cycle;Signal;HPM_P1;HPM_P2
2023/07/04 00:00:16;;;;;;;6.32;2.22;;;;;;;16.21;100.00;100368.50;690232;28;829;-63
2023/07/04 00:00:39;;;;;;;5.97;2.40;;;;;;;16.15;100.00;100365.16;688899;28;1451;-62
2023/07/04 00:01:01;;;;;;;6.47;2.10;;;;;;;16.14;100.00;100370.47;688206;28;4352;-63
2023/07/04 00:01:24;;;;;;;6.13;2.03;;;;;;;16.22;100.00;100365.81;688361;28;1483;-62
2023/07/04 00:01:46;;;;;;;6.43;2.20;;;;;;;16.26;100.00;100366.59;689878;28;1046;-63
2023/07/04 00:02:07;;;;;;;7.22;2.20;;;;;;;16.31;100.00;100362.00;689920;28;824;-63
2023/07/04 00:02:27;;;;;;;7.40;2.22;;;;;;;16.33;100.00;100362.81;689242;28;1333;-63
2023/07/04 00:02:49;;;;;;;6.47;2.25;;;;;;;16.25;100.00;100368.34;690701;28;801;-63
2023/07/04 00:03:10;;;;;;;6.07;2.30;;;;;;;16.24;100.00;100369.28;690064;28;1010;-63
2023/07/04 00:03:31;;;;;;;5.67;1.90;;;;;;;16.28;100.00;100363.00;688913;28;970;-63
2023/07/04 00:03:54;;;;;;;6.28;2.67;;;;;;;16.24;100.00;100368.41;689149;28;4272;-63
2023/07/04 00:04:19;;;;;;;6.22;2.60;;;;;;;16.19;100.00;100362.44;689036;28;952;-63
2023/07/04 00:04:42;;;;;;;6.20;2.33;;;;;;;16.22;100.00;100368.44;688443;28;1574;-63
2023/07/04 00:05:02;;;;;;;5.95;2.45;;;;;;;16.25;100.00;100370.13;689961;28;970;-63
2023/07/04 00:05:23;;;;;;;7.03;2.87;;;;;;;16.25;100.00;100365.72;685624;28;1725;-64
2023/07/04 00:05:50;;;;;;;5.53;2.25;;;;;;;16.25;100.00;100360.44;687451;28;1418;-63
2023/07/04 00:06:13;;;;;;;4.85;2.20;;;;;;;16.21;100.00;100365.88;686936;28;1963;-62
2023/07/04 00:06:36;;;;;;;6.70;2.40;;;;;;;16.26;100.00;100358.69;685379;28;1675;-63
2023/07/04 00:06:56;;;;;;;6.03;2.17;;;;;;;16.22;100.00;100371.09;684058;28;4377;-63
2023/07/04 00:07:20;;;;;;;5.13;2.10;;;;;;;16.24;100.00;100361.38;683595;28;1390;-63
2023/07/04 00:07:41;;;;;;;5.40;2.20;;;;;;;16.17;100.00;100370.38;684517;28;1019;-63
2023/07/04 00:08:02;;;;;;;6.17;2.10;;;;;;;16.20;100.00;100369.41;684308;28;813;-63
2023/07/04 00:08:25;;;;;;;5.07;2.10;;;;;;;16.14;100.00;100367.84;682504;28;927;-63
2023/07/04 00:08:45;;;;;;;5.15;2.00;;;;;;;16.14;100.00;100370.47;685443;28;1718;-61
2023/07/04 00:09:07;;;;;;;5.80;2.22;;;;;;;16.14;100.00;100365.19;690446;28;905;-62
2023/07/04 00:09:27;;;;;;;7.30;2.80;;;;;;;16.20;100.00;100359.75;688429;28;1439;-64
2023/07/04 00:09:47;;;;;;;7.77;2.50;;;;;;;16.23;100.00;100359.63;689222;28;4343;-62
2023/07/04 00:10:09;;;;;;;8.07;2.22;;;;;;;16.17;100.00;100365.97;690195;28;972;-63
2023/07/04 00:10:29;;;;;;;6.30;2.47;;;;;;;16.13;100.00;100366.09;687745;28;1476;-63
2023/07/04 00:10:52;;;;;;;7.00;2.50;;;;;;;16.17;100.00;100362.47;689579;28;1039;-62
2023/07/04 00:11:13;;;;;;;6.43;2.30;;;;;;;16.12;100.00;100365.25;690328;28;983;-62
2023/07/04 00:11:34;;;;;;;6.03;2.33;;;;;;;16.13;100.00;100353.81;685362;28;2197;-63
2023/07/04 00:11:54;;;;;;;4.97;2.15;;;;;;;16.11;100.00;100354.75;686658;28;1342;-62
2023/07/04 00:12:15;;;;;;;5.45;2.17;;;;;;;16.12;100.00;100362.63;687488;28;948;-63
2023/07/04 00:12:35;;;;;;;5.57;1.90;;;;;;;16.11;100.00;100370.59;687404;28;1464;-63
2023/07/04 00:12:56;;;;;;;6.20;2.08;;;;;;;16.06;100.00;100360.19;689281;28;4428;-62
2023/07/04 00:13:17;;;;;;;7.23;2.43;;;;;;;16.13;100.00;100366.09;689432;28;1129;-63
2023/07/04 00:13:38;;;;;;;7.38;2.20;;;;;;;16.17;100.00;100359.81;688295;28;1469;-63
2023/07/04 00:13:59;;;;;;;5.72;2.45;;;;;;;16.19;100.00;100355.38;689651;28;928;-64
2023/07/04 00:14:20;;;;;;;5.72;2.50;;;;;;;16.20;100.00;100358.84;689682;28;991;-63
2023/07/04 00:14:42;;;;;;;5.53;2.20;;;;;;;16.15;100.00;100359.03;688126;28;1460;-62
2023/07/04 00:15:03;;;;;;;6.10;2.25;;;;;;;16.22;100.00;100365.81;690145;28;883;-63
2023/07/04 00:15:23;;;;;;;6.45;2.47;;;;;;;16.24;100.00;100360.47;688771;28;1527;-63
2023/07/04 00:15:45;;;;;;;5.40;2.40;;;;;;;16.19;100.00;100358.00;686434;28;4343;-62
2023/07/04 00:16:07;;;;;;;4.88;2.00;;;;;;;16.17;100.00;100370.38;686947;28;936;-63
2023/07/04 00:16:28;;;;;;;4.95;2.10;;;;;;;16.10;100.00;100367.09;684227;28;3173;-63
2023/07/04 00:16:48;;;;;;;6.53;2.20;;;;;;;16.13;100.00;100363.47;686861;28;1408;-64
2023/07/04 00:17:09;;;;;;;6.17;2.17;;;;;;;16.08;100.00;100376.81;690156;28;888;-63
2023/07/04 00:17:30;;;;;;;6.10;2.00;;;;;;;16.06;100.00;100361.94;689140;28;922;-64
2023/07/04 00:17:50;;;;;;;5.35;2.05;;;;;;;16.12;100.00;100353.84;689083;28;999;-63
2023/07/04 00:18:11;;;;;;;6.57;2.23;;;;;;;16.07;100.00;100363.69;686944;28;1082;-63
2023/07/04 00:18:31;;;;;;;5.90;2.20;;;;;;;16.02;100.00;100370.88;685102;28;1552;-63
2023/07/04 00:18:52;;;;;;;5.50;2.10;;;;;;;16.05;100.00;100366.38;684731;28;4385;-63
2023/07/04 00:19:12;;;;;;;6.80;2.60;;;;;;;16.08;100.00;100354.88;685587;28;917;-63
2023/07/04 00:19:32;;;;;;;6.67;2.70;;;;;;;16.09;100.00;100360.09;684599;28;1453;-64
2023/07/04 00:19:53;;;;;;;5.85;2.25;;;;;;;16.04;100.00;100364.63;685669;28;861;-63
2023/07/04 00:20:13;;;;;;;7.10;2.20;;;;;;;16.02;100.00;100360.31;689779;28;1262;-63
2023/07/04 00:20:37;;;;;;;6.32;2.30;;;;;;;16.05;100.00;100365.50;688982;28;1724;-63
2023/07/04 00:20:59;;;;;;;7.22;2.45;;;;;;;16.05;100.00;100366.38;688258;28;916;-62
2023/07/04 00:21:20;;;;;;;5.87;2.47;;;;;;;16.12;100.00;100367.03;689858;28;1193;-63
2023/07/04 00:21:41;;;;;;;5.40;2.37;;;;;;;16.17;100.00;100362.47;688245;28;4540;-63
2023/07/04 00:22:04;;;;;;;5.57;2.28;;;;;;;16.10;100.00;100367.09;689492;28;959;-63
2023/07/04 00:22:25;;;;;;;5.88;2.30;;;;;;;16.01;100.00;100362.09;688649;28;1468;-63
2023/07/04 00:22:45;;;;;;;7.40;2.30;;;;;;;16.09;100.00;100361.84;690293;28;1007;-63
2023/07/04 00:23:06;;;;;;;6.80;2.10;;;;;;;16.11;100.00;100366.16;689543;28;849;-63
2023/07/04 00:23:31;;;;;;;6.53;1.92;;;;;;;16.07;100.00;100368.94;688277;28;1610;-62
2023/07/04 00:23:52;;;;;;;6.03;2.15;;;;;;;16.11;100.00;100360.03;689442;28;1031;-63
2023/07/04 00:24:13;;;;;;;6.18;2.55;;;;;;;16.05;100.00;100370.75;689758;28;972;-63
2023/07/04 00:24:33;;;;;;;7.10;2.67;;;;;;;16.11;100.00;100357.41;688284;28;1571;-61
2023/07/04 00:24:54;;;;;;;7.23;2.90;;;;;;;16.11;100.00;100362.66;689608;28;4363;-62
2023/07/04 00:25:14;;;;;;;8.07;2.58;;;;;;;16.04;100.00;100374.34;690011;28;944;-63
2023/07/04 00:25:35;;;;;;;6.87;2.50;;;;;;;16.05;100.00;100365.50;688466;28;1566;-62
2023/07/04 00:25:56;;;;;;;6.57;2.17;;;;;;;16.08;100.00;100368.06;690039;28;853;-61
2023/07/04 00:26:19;;;;;;;8.90;2.20;;;;;;;16.06;100.00;100370.75;689450;28;1923;-63
2023/07/04 00:26:39;;;;;;;5.80;2.25;;;;;;;15.98;100.00;100370.13;688657;28;1487;-63
2023/07/04 00:27:00;;;;;;;5.38;2.20;;;;;;;16.07;100.00;100363.69;689544;28;948;-62
2023/07/04 00:27:23;;;;;;;5.38;2.17;;;;;;;15.98;100.00;100376.25;686523;28;1367;-62
2023/07/04 00:27:44;;;;;;;5.10;2.10;;;;;;;15.92;100.00;100367.66;687059;28;4446;-61
2023/07/04 00:28:05;;;;;;;5.80;2.28;;;;;;;15.93;100.00;100370.25;687490;28;1223;-62
2023/07/04 00:28:26;;;;;;;6.55;2.15;;;;;;;16.02;100.00;100363.84;685268;28;1565;-63
2023/07/04 00:28:47;;;;;;;5.93;2.20;;;;;;;15.98;100.00;100370.13;686025;28;818;-62
2023/07/04 00:29:08;;;;;;;5.57;2.28;;;;;;;15.97;100.00;100363.13;687449;28;928;-59
2023/07/04 00:29:29;;;;;;;5.15;2.20;;;;;;;16.07;100.00;100369.81;688817;28;1620;-59
2023/07/04 00:29:50;;;;;;;5.22;2.10;;;;;;;16.07;100.00;100363.69;687051;28;1409;-62
2023/07/04 00:30:12;;;;;;;5.57;1.98;;;;;;;15.99;100.00;100371.81;685990;28;1330;-62
2023/07/04 00:30:32;;;;;;;6.80;2.22;;;;;;;15.98;100.00;100370.13;682788;28;1430;-62
2023/07/04 00:30:54;;;;;;;7.30;2.17;;;;;;;16.00;100.00;100361.25;684150;28;4299;-62
2023/07/04 00:31:18;;;;;;;7.97;2.20;;;;;;;16.02;100.00;100378.78;683739;28;1306;-62
2023/07/04 00:31:38;;;;;;;7.03;2.40;;;;;;;15.97;100.00;100369.25;684616;28;1573;-63
2023/07/04 00:32:02;;;;;;;6.37;2.27;;;;;;;15.95;100.00;100373.72;686243;28;1127;-62
2023/07/04 00:32:22;;;;;;;6.65;2.38;;;;;;;15.96;100.00;100366.66;686238;28;1521;-63
2023/07/04 00:32:43;;;;;;;5.90;2.22;;;;;;;15.98;100.00;100375.41;682239;28;1206;-62
2023/07/04 00:33:03;;;;;;;6.10;2.30;;;;;;;15.93;100.00;100370.25;682311;29;1184;-62
2023/07/04 00:33:27;;;;;;;5.18;2.13;;;;;;;15.94;100.00;100374.63;679633;28;1486;-63
2023/07/04 00:33:48;;;;;;;5.30;2.05;;;;;;;15.92;100.00;100371.19;678184;28;4407;-62
2023/07/04 00:34:08;;;;;;;4.73;2.20;;;;;;;15.91;100.00;100376.47;679916;29;790;-62
2023/07/04 00:34:29;;;;;;;6.13;2.10;;;;;;;15.99;100.00;100377.09;679323;28;1617;-63
2023/07/04 00:34:50;;;;;;;8.17;2.10;;;;;;;16.02;100.00;100381.41;682108;29;1315;-63
2023/07/04 00:35:10;;;;;;;6.57;2.42;;;;;;;15.90;100.00;100374.78;680289;28;1450;-62
2023/07/04 00:35:31;;;;;;;6.57;2.30;;;;;;;15.91;100.00;100374.72;682375;28;1435;-62
2023/07/04 00:36:04;;;;;;;6.38;2.10;;;;;;;15.83;100.00;100382.00;684736;28;1277;-60
2023/07/04 00:36:25;;;;;;;5.47;2.45;;;;;;;15.87;100.00;100373.09;684536;28;1663;-63
2023/07/04 00:36:46;;;;;;;5.45;2.50;;;;;;;15.92;100.00;100372.94;682611;28;4632;-62
2023/07/04 00:37:07;;;;;;;6.10;2.47;;;;;;;15.91;100.00;100380.00;686250;28;936;-62
2023/07/04 00:37:28;;;;;;;7.22;2.40;;;;;;;15.87;100.00;100372.22;684461;28;1501;-62
2023/07/04 00:37:49;;;;;;;5.30;2.20;;;;;;;15.90;100.00;100375.63;686176;28;893;-62
2023/07/04 00:38:09;;;;;;;7.10;2.23;;;;;;;15.84;100.00;100378.47;686751;28;2529;-62
2023/07/04 00:38:34;;;;;;;7.53;2.40;;;;;;;15.79;100.00;100375.06;683957;28;1486;-62
2023/07/04 00:38:56;;;;;;;5.93;2.42;;;;;;;15.75;100.00;100378.72;685688;28;5509;-62
2023/07/04 00:39:16;;;;;;;5.85;2.22;;;;;;;15.76;100.00;100372.53;686422;28;868;-63
2023/07/04 00:39:37;;;;;;;6.73;2.23;;;;;;;15.72;100.00;100382.28;687525;28;1704;-63
2023/07/04 00:39:58;;;;;;;6.60;2.20;;;;;;;15.74;100.00;100379.59;686299;28;4358;-62
2023/07/04 00:40:18;;;;;;;6.90;2.40;;;;;;;15.72;100.00;100381.44;686767;28;1114;-62
2023/07/04 00:40:39;;;;;;;6.97;2.37;;;;;;;15.61;100.00;100369.44;683361;28;1740;-60
2023/07/04 00:41:01;;;;;;;6.57;2.40;;;;;;;15.69;100.00;100378.88;683721;28;1159;-63
2023/07/04 00:41:27;;;;;;;6.10;2.35;;;;;;;15.76;100.00;100370.75;683347;28;1429;-62
2023/07/04 00:41:49;;;;;;;5.53;2.20;;;;;;;15.73;100.00;100381.41;685371;28;1344;-63
2023/07/04 00:42:10;;;;;;;6.35;2.30;;;;;;;15.65;100.00;100373.72;683821;28;1439;-63
2023/07/04 00:42:34;;;;;;;5.80;2.33;;;;;;;15.69;100.00;100373.59;685223;28;1609;-62
2023/07/04 00:43:02;;;;;;;6.00;2.30;;;;;;;15.63;100.00;100377.28;686656;28;4354;-62
2023/07/04 00:43:24;;;;;;;6.55;2.40;;;;;;;15.65;100.00;100381.63;686096;28;1615;-63
2023/07/04 00:43:59;;;;;;;5.85;2.15;;;;;;;15.72;100.00;100381.44;683589;28;1438;-65
2023/07/04 00:44:30;;;;;;;7.28;2.33;;;;;;;15.73;100.00;100375.25;684863;28;886;-63
2023/07/04 00:44:55;;;;;;;7.45;2.35;;;;;;;15.83;100.00;100376.72;686919;28;1314;-63
2023/07/04 00:45:21;;;;;;;6.20;2.38;;;;;;;15.76;100.00;100383.06;689852;28;972;-62
2023/07/04 00:45:43;;;;;;;6.80;2.65;;;;;;;15.75;100.00;100387.47;687221;28;4567;-61
2023/07/04 00:46:05;;;;;;;7.35;2.90;;;;;;;15.72;100.00;100378.81;689134;28;1914;-62
2023/07/04 00:46:38;;;;;;;7.60;2.50;;;;;;;15.69;100.00;100379.75;687149;28;1480;-62
2023/07/04 00:47:10;;;;;;;5.88;2.22;;;;;;;15.65;100.00;100386.88;686535;28;1231;-63
2023/07/04 00:47:43;;;;;;;6.65;2.38;;;;;;;15.68;100.00;100387.72;682840;28;1591;-63
2023/07/04 00:48:05;;;;;;;7.80;2.40;;;;;;;15.62;100.00;100372.97;683495;28;1418;-63
2023/07/04 00:48:26;;;;;;;6.93;2.15;;;;;;;15.57;100.00;100380.97;682321;28;1648;-62
2023/07/04 00:48:47;;;;;;;8.52;2.60;;;;;;;15.62;100.00;100378.22;682037;28;4312;-63
2023/07/04 00:49:22;;;;;;;6.95;2.35;;;;;;;15.59;100.00;100383.56;684467;28;833;-62
2023/07/04 00:49:45;;;;;;;6.20;2.20;;;;;;;15.59;100.00;100381.81;683484;28;1541;-62
2023/07/04 00:50:07;;;;;;;6.25;2.45;;;;;;;15.58;100.00;100377.44;686824;28;924;-62
2023/07/04 00:50:31;;;;;;;6.53;2.38;;;;;;;15.55;100.00;100384.56;684442;28;1493;-63
2023/07/04 00:50:57;;;;;;;6.93;2.30;;;;;;;15.66;100.00;100374.59;689832;28;1434;-62
2023/07/04 00:51:21;;;;;;;6.90;2.70;;;;;;;15.69;100.00;100376.25;689601;28;1255;-63
2023/07/04 00:51:45;;;;;;;7.88;2.75;;;;;;;15.55;100.00;100374.91;685173;28;4335;-62
2023/07/04 00:52:16;;;;;;;5.80;2.17;;;;;;;15.52;100.00;100382.91;683830;28;1252;-63
2023/07/04 00:52:37;;;;;;;6.95;2.38;;;;;;;15.52;100.00;100388.19;685821;28;1576;-63
2023/07/04 00:53:02;;;;;;;6.32;2.45;;;;;;;15.51;100.00;100386.44;686598;28;1271;-63
2023/07/04 00:53:23;;;;;;;6.47;2.30;;;;;;;15.52;100.00;100385.53;687302;28;986;-62
2023/07/04 00:53:44;;;;;;;7.45;2.58;;;;;;;15.56;100.00;100384.56;686591;28;841;-61
2023/07/04 00:54:04;;;;;;;6.57;2.20;;;;;;;15.61;100.00;100382.63;684025;28;1063;-63
2023/07/04 00:54:29;;;;;;;7.93;2.80;;;;;;;15.60;100.00;100382.66;682706;28;1916;-62
2023/07/04 00:54:58;;;;;;;8.27;2.90;;;;;;;15.58;100.00;100385.34;684345;28;4534;-63
2023/07/04 00:55:19;;;;;;;8.10;2.40;;;;;;;15.52;100.00;100379.41;684421;28;810;-63
2023/07/04 00:55:43;;;;;;;7.53;2.50;;;;;;;15.50;100.00;100379.44;682356;28;1465;-63
2023/07/04 00:56:05;;;;;;;4.88;2.00;;;;;;;15.48;100.00;100379.50;686479;28;1424;-63
2023/07/04 00:56:28;;;;;;;5.63;1.90;;;;;;;15.43;100.00;100380.53;681969;28;1767;-63
2023/07/04 00:56:55;;;;;;;7.30;2.22;;;;;;;15.45;100.00;100371.69;686547;28;862;-62
2023/07/04 00:57:17;;;;;;;6.05;2.40;;;;;;;15.48;100.00;100376.84;686639;28;1316;-63
2023/07/04 00:57:38;;;;;;;6.40;2.30;;;;;;;15.54;100.00;100374.97;682939;28;1216;-63
2023/07/04 00:58:04;;;;;;;6.97;2.45;;;;;;;15.46;100.00;100372.53;687569;28;4379;-59
2023/07/04 00:58:24;;;;;;;7.45;2.47;;;;;;;15.54;100.00;100374.97;685401;28;1580;-64
2023/07/04 00:58:45;;;;;;;6.97;2.10;;;;;;;15.51;100.00;100373.28;684303;28;916;-62
2023/07/04 00:59:05;;;;;;;7.20;2.20;;;;;;;15.54;100.00;100375.81;683554;28;952;-63
2023/07/04 00:59:27;;;;;;;6.23;2.20;;;;;;;15.50;100.00;100377.66;683355;28;1497;-63
2023/07/04 00:59:52;;;;;;;5.90;2.13;;;;;;;15.46;100.00;100380.44;684701;28;893;-63
2023/07/04 01:00:19;;;;;;;5.88;2.15;;;;;;;15.54;100.00;100378.44;684985;28;996;-63
2023/07/04 01:00:40;;;;;;;5.85;2.13;;;;;;;15.48;100.00;100376.00;687042;28;4587;-61
2023/07/04 01:01:00;;;;;;;6.20;2.10;;;;;;;15.51;100.00;100381.19;689128;28;1199;-63
2023/07/04 01:01:21;;;;;;;7.27;2.20;;;;;;;15.54;100.00;100375.81;690055;28;896;-63
2023/07/04 01:01:42;;;;;;;5.63;2.38;;;;;;;15.41;100.00;100384.97;688169;28;1455;-59
2023/07/04 01:02:03;;;;;;;6.78;2.30;;;;;;;15.31;100.00;100381.75;688374;28;853;-62
2023/07/04 01:02:31;;;;;;;8.60;2.53;;;;;;;15.25;100.00;100382.78;687806;28;1518;-62
2023/07/04 01:03:01;;;;;;;8.32;2.40;;;;;;;15.26;100.00;100383.69;686980;28;2189;-62
2023/07/04 01:03:24;;;;;;;6.95;2.20;;;;;;;15.26;100.00;100381.88;684723;28;964;-62
2023/07/04 01:03:46;;;;;;;6.28;2.08;;;;;;;15.24;100.00;100378.44;683170;28;4677;-62
2023/07/04 01:04:07;;;;;;;5.53;2.00;;;;;;;15.34;100.00;100373.78;682961;28;1346;-64
2023/07/04 01:04:27;;;;;;;7.07;2.20;;;;;;;15.33;100.00;100378.16;683772;28;1709;-63
2023/07/04 01:04:50;;;;;;;6.77;2.10;;;;;;;15.26;100.00;100391.56;685901;28;880;-63
2023/07/04 01:05:13;;;;;;;5.72;2.28;;;;;;;15.36;100.00;100376.38;687203;28;1288;-63
2023/07/04 01:05:43;;;;;;;7.85;2.30;;;;;;;15.36;100.00;100374.59;685644;28;2088;-62
2023/07/04 01:06:24;;;;;;;7.40;2.25;;;;;;;15.34;100.00;100371.16;686082;28;1899;-60
2023/07/04 01:06:55;;;;;;;5.90;2.20;;;;;;;15.39;100.00;100376.28;683830;28;4534;-62
2023/07/04 01:07:30;;;;;;;6.78;2.47;;;;;;;15.37;100.00;100380.72;683571;28;1384;-63
2023/07/04 01:08:00;;;;;;;7.88;2.30;;;;;;;15.36;100.00;100376.38;688410;28;964;-62
2023/07/04 01:08:26;;;;;;;6.30;2.15;;;;;;;15.44;100.00;100374.38;688156;28;1484;-63
2023/07/04 01:08:56;;;;;;;12.10;2.70;;;;;;;15.43;100.00;100373.50;687895;28;1401;-62
2023/07/04 01:09:18;;;;;;;6.85;2.38;;;;;;;15.43;100.00;100376.13;688812;28;987;-62
2023/07/04 01:09:44;;;;;;;7.60;2.55;;;;;;;15.40;100.00;100385.91;689297;28;1732;-62
2023/07/04 01:10:20;;;;;;;8.23;2.40;;;;;;;15.39;100.00;100376.28;689387;28;4792;-63
2023/07/04 01:10:46;;;;;;;7.82;2.30;;;;;;;15.38;100.00;100371.91;688225;28;1646;-63
2023/07/04 01:11:12;;;;;;;7.07;2.20;;;;;;;15.43;100.00;100383.19;689882;28;1240;-63
2023/07/04 01:11:42;;;;;;;6.40;2.20;;;;;;;15.36;100.00;100376.38;689144;28;1563;-63
2023/07/04 01:12:03;;;;;;;6.88;2.30;;;;;;;15.29;100.00;100380.94;688774;28;1346;-62
2023/07/04 01:12:29;;;;;;;7.40;2.33;;;;;;;15.26;100.00;100381.03;687338;28;1491;-63
2023/07/04 01:12:50;;;;;;;6.75;2.28;;;;;;;15.26;100.00;100381.88;685565;28;4295;-63
2023/07/04 01:13:33;;;;;;;7.05;2.28;;;;;;;15.23;100.00;100378.47;683397;28;1220;-63
2023/07/04 01:13:54;;;;;;;7.65;2.40;;;;;;;15.21;100.00;100375.03;683397;28;1493;-62
2023/07/04 01:14:28;;;;;;;9.40;2.67;;;;;;;15.21;100.00;100365.34;682420;28;1172;-63
2023/07/04 01:14:48;;;;;;;5.95;2.20;;;;;;;15.24;100.00;100375.78;685139;28;818;-63
2023/07/04 01:15:10;;;;;;;10.27;3.08;;;;;;;15.28;100.00;100380.06;688699;28;741;-63
2023/07/04 01:15:30;;;;;;;8.57;2.80;;;;;;;15.37;100.00;100376.31;685037;28;1496;-63
2023/07/04 01:15:51;;;;;;;4.72;2.13;;;;;;;15.32;100.00;100368.53;686345;28;4357;-63
2023/07/04 01:16:17;;;;;;;6.20;2.60;;;;;;;15.37;100.00;100371.06;687543;28;1075;-63
2023/07/04 01:16:37;;;;;;;6.97;2.40;;;;;;;15.31;100.00;100369.47;684590;28;1465;-63
2023/07/04 01:16:58;;;;;;;6.70;2.30;;;;;;;15.22;100.00;100375.00;687157;28;1385;-62
2023/07/04 01:17:18;;;;;;;5.30;2.10;;;;;;;15.26;100.00;100373.16;687637;28;774;-63
2023/07/04 01:17:42;;;;;;;6.07;2.03;;;;;;;15.21;100.00;100370.63;687861;28;1463;-62
2023/07/04 01:18:02;;;;;;;7.43;2.35;;;;;;;15.24;100.00;100367.88;689398;28;2219;-63
2023/07/04 01:18:23;;;;;;;6.72;2.10;;;;;;;15.36;100.00;100365.84;690472;28;828;-62
2023/07/04 01:18:46;;;;;;;6.78;2.22;;;;;;;15.28;100.00;100366.03;688560;28;4564;-63
2023/07/04 01:19:07;;;;;;;7.75;2.17;;;;;;;15.27;100.00;100366.94;688864;28;936;-63
2023/07/04 01:19:32;;;;;;;8.05;2.60;;;;;;;15.20;100.00;100363.63;685603;28;1501;-62
2023/07/04 01:19:53;;;;;;;6.63;2.42;;;;;;;15.23;100.00;100363.56;683617;28;1242;-63
2023/07/04 01:20:17;;;;;;;7.53;2.38;;;;;;;15.21;100.00;100361.88;683919;28;1501;-62
2023/07/04 01:20:37;;;;;;;6.63;2.05;;;;;;;15.15;100.00;100376.06;679169;29;2411;-63
2023/07/04 01:21:04;;;;;;;6.27;2.33;;;;;;;15.12;100.00;100370.91;682104;28;817;-63
2023/07/04 01:21:27;;;;;;;6.03;2.25;;;;;;;15.11;100.00;100372.66;682383;28;986;-63
2023/07/04 01:21:52;;;;;;;7.75;2.65;;;;;;;15.08;100.00;100375.38;682232;28;4564;-62
2023/07/04 01:22:19;;;;;;;6.28;2.47;;;;;;;15.13;100.00;100368.22;684322;28;924;-63
2023/07/04 01:22:57;;;;;;;8.43;2.50;;;;;;;15.20;100.00;100368.88;684900;28;1058;-63
2023/07/04 01:23:54;;;;;;;6.03;2.28;;;;;;;15.24;100.00;100362.63;684922;28;1311;-63
2023/07/04 01:24:26;;;;;;;7.53;2.40;;;;;;;15.15;100.00;100374.28;684603;28;905;-63
2023/07/04 01:25:20;;;;;;;6.07;2.10;;;;;;;15.15;100.00;100368.19;682899;28;4478;-62
2023/07/04 01:25:56;;;;;;;7.55;2.35;;;;;;;15.07;100.00;100373.66;677241;28;1461;-63
2023/07/04 01:26:31;;;;;;;5.78;2.58;;;;;;;15.03;100.00;100372.00;687465;28;1914;-63
2023/07/04 01:26:51;;;;;;;5.97;2.22;;;;;;;15.06;100.00;100369.28;687889;28;1066;-62
2023/07/04 01:27:14;;;;;;;6.00;2.22;;;;;;;15.01;100.00;100372.94;684969;28;1556;-63
2023/07/04 01:27:38;;;;;;;7.65;2.45;;;;;;;14.96;100.00;100367.81;681956;28;1504;-62
2023/07/04 01:28:02;;;;;;;6.97;2.40;;;;;;;14.90;100.00;100370.63;683928;28;4444;-63
2023/07/04 01:28:24;;;;;;;6.68;2.30;;;;;;;14.92;100.00;100374.94;683815;28;1481;-63
2023/07/04 01:28:46;;;;;;;6.18;2.17;;;;;;;14.99;100.00;100362.47;685152;28;812;-62
2023/07/04 01:29:11;;;;;;;6.22;2.00;;;;;;;15.00;100.00;100368.63;685831;28;825;-63
2023/07/04 01:29:36;;;;;;;5.55;2.00;;;;;;;14.89;100.00;100359.22;690151;28;1632;-63
2023/07/04 01:30:02;;;;;;;8.35;2.50;;;;;;;14.98;100.00;100364.25;690475;28;1372;-63
2023/07/04 01:30:22;;;;;;;7.75;2.47;;;;;;;15.06;100.00;100368.44;689535;28;947;-63
2023/07/04 01:30:44;;;;;;;6.70;2.40;;;;;;;15.08;100.00;100371.91;688862;28;4408;-62
2023/07/04 01:31:05;;;;;;;6.68;2.40;;;;;;;15.05;100.00;100369.31;689166;28;1313;-63
2023/07/04 01:31:30;;;;;;;5.93;2.50;;;;;;;15.11;100.00;100370.03;687065;28;1543;-63
2023/07/04 01:31:52;;;;;;;8.23;2.38;;;;;;;15.12;100.00;100368.28;686216;28;931;-63
2023/07/04 01:32:13;;;;;;;8.00;2.58;;;;;;;15.05;100.00;100374.59;685726;28;1003;-63
2023/07/04 01:32:35;;;;;;;7.60;2.40;;;;;;;14.98;100.00;100372.16;682131;28;1583;-63
2023/07/04 01:32:56;;;;;;;6.07;2.25;;;;;;;15.06;100.00;100369.28;684575;28;960;-63
2023/07/04 01:33:21;;;;;;;7.85;2.20;;;;;;;15.01;100.00;100371.19;682720;28;1288;-63
2023/07/04 01:33:41;;;;;;;7.68;2.50;;;;;;;14.94;100.00;100365.25;683249;28;4409;-62
2023/07/04 01:34:04;;;;;;;7.90;2.40;;;;;;;14.92;100.00;100367.03;686962;28;861;-63
2023/07/04 01:34:25;;;;;;;8.55;2.40;;;;;;;14.96;100.00;100367.81;686666;28;2305;-63
2023/07/04 01:34:47;;;;;;;7.65;2.22;;;;;;;15.04;100.00;100365.84;689400;28;757;-63
2023/07/04 01:35:08;;;;;;;7.35;2.30;;;;;;;15.04;100.00;100368.47;688271;28;1613;-63
2023/07/04 01:35:29;;;;;;;6.78;2.30;;;;;;;15.00;100.00;100371.25;685156;28;2041;-62
2023/07/04 01:35:50;;;;;;;6.60;2.20;;;;;;;15.02;100.00;100372.06;686177;28;750;-63
2023/07/04 01:36:11;;;;;;;7.10;2.60;;;;;;;15.01;100.00;100373.84;686805;28;1140;-63
2023/07/04 01:36:37;;;;;;;7.22;2.47;;;;;;;15.11;100.00;100369.16;682737;28;1585;-64
2023/07/04 01:36:59;;;;;;;8.05;2.20;;;;;;;15.04;100.00;100367.63;685236;28;4302;-63
2023/07/04 01:37:19;;;;;;;6.72;2.15;;;;;;;15.06;100.00;100374.53;686673;28;1079;-63
2023/07/04 01:37:40;;;;;;;7.07;2.20;;;;;;;15.08;100.00;100374.53;682386;28;1459;-63
2023/07/04 01:38:01;;;;;;;6.90;2.25;;;;;;;15.05;100.00;100369.31;683899;28;842;-63
2023/07/04 01:38:22;;;;;;;5.53;2.10;;;;;;;14.98;100.00;100372.16;685516;28;1247;-63
2023/07/04 01:38:42;;;;;;;6.73;2.27;;;;;;;14.92;100.00;100376.72;685080;28;5296;-62
2023/07/04 01:39:03;;;;;;;6.18;2.22;;;;;;;14.98;100.00;100366.00;687583;28;849;-61
2023/07/04 01:39:25;;;;;;;5.25;2.40;;;;;;;14.93;100.00;100368.75;687047;28;1003;-62
2023/07/04 01:39:46;;;;;;;6.57;2.63;;;;;;;14.98;100.00;100366.88;686418;28;4696;-60
2023/07/04 01:40:07;;;;;;;5.85;2.45;;;;;;;14.98;100.00;100366.88;684529;28;1410;-63
2023/07/04 01:40:28;;;;;;;8.35;2.25;;;;;;;14.90;100.00;100368.00;684918;28;1603;-63
2023/07/04 01:40:50;;;;;;;7.10;2.22;;;;;;;14.89;100.00;100375.03;687309;28;1209;-63
2023/07/04 01:41:12;;;;;;;7.82;2.53;;;;;;;14.89;100.00;100369.75;687823;28;1036;-63
2023/07/04 01:41:32;;;;;;;6.88;2.70;;;;;;;14.94;100.00;100369.66;686250;28;1524;-64
2023/07/04 01:41:54;;;;;;;9.45;2.55;;;;;;;14.91;100.00;100369.72;682040;28;1215;-63
2023/07/04 01:42:17;;;;;;;8.15;2.35;;;;;;;14.91;100.00;100373.22;685043;28;860;-62
2023/07/04 01:42:38;;;;;;;9.00;2.67;;;;;;;14.94;100.00;100370.50;681231;28;1624;-63
2023/07/04 01:42:59;;;;;;;8.57;2.60;;;;;;;14.90;100.00;100373.28;682012;28;4515;-63
2023/07/04 01:43:19;;;;;;;7.20;2.20;;;;;;;14.93;100.00;100374.03;682263;28;1359;-63
2023/07/04 01:43:40;;;;;;;7.95;2.30;;;;;;;14.96;100.00;100368.66;680552;28;1778;-63
2023/07/04 01:44:04;;;;;;;6.28;2.33;;;;;;;14.92;100.00;100369.66;681963;29;1149;-63
2023/07/04 01:44:25;;;;;;;7.43;2.35;;;;;;;14.88;100.00;100373.28;681379;28;2041;-64
2023/07/04 01:44:46;;;;;;;7.03;2.17;;;;;;;14.90;100.00;100368.84;685043;28;1469;-63
2023/07/04 01:45:08;;;;;;;7.25;2.50;;;;;;;14.96;100.00;100376.56;684952;28;881;-63
2023/07/04 01:45:28;;;;;;;7.78;2.63;;;;;;;14.95;100.00;100374.88;683250;28;1680;-63
2023/07/04 01:45:49;;;;;;;7.15;2.67;;;;;;;15.00;100.00;100368.63;685857;28;4445;-63
2023/07/04 01:46:09;;;;;;;6.60;2.30;;;;;;;15.00;100.00;100376.50;684979;28;1981;-63
2023/07/04 01:46:31;;;;;;;5.95;2.20;;;;;;;14.96;100.00;100370.44;680379;28;1584;-62
2023/07/04 01:46:51;;;;;;;5.88;2.42;;;;;;;15.01;100.00;100376.47;682726;28;1259;-63
2023/07/04 01:47:12;;;;;;;6.00;2.25;;;;;;;15.06;100.00;100368.44;685039;28;1142;-63
2023/07/04 01:47:35;;;;;;;6.45;2.45;;;;;;;15.09;100.00;100379.75;687177;28;1335;-63
2023/07/04 01:47:55;;;;;;;7.07;2.58;;;;;;;15.04;100.00;100378.16;688486;28;1262;-63
2023/07/04 01:48:16;;;;;;;6.55;2.33;;;;;;;14.97;100.00;100377.44;687418;28;1310;-63
2023/07/04 01:48:37;;;;;;;5.90;2.10;;;;;;;14.92;100.00;100372.28;686437;28;1536;-63
2023/07/04 01:49:00;;;;;;;6.90;2.83;;;;;;;14.91;100.00;100373.22;684143;28;4281;-63
2023/07/04 01:49:20;;;;;;;7.53;2.83;;;;;;;14.88;100.00;100373.28;684580;28;1330;-63